Time;durP1;ratioP1;P1;durP2;ratioP2;P2;SDS_P1;SDS_P2;PMS_P1;PMS_P2;Temp;Humidity;BMP_temperature;BMP_pressure;BME280_temperature;BME280_humidity;BME280_pressure;Samples;Min_cycle;Max_cycle;Signal;HPM_P1;HPM_P2
2023/01/10 00:00:45;;;;;;;;;;;6.70;88.50;;;;;;5009002;28;19922;-83
2023/01/10 00:03:11;;;;;;;;;;;6.80;88.80;;;;;;5023086;28;19935;-83
2023/01/10 00:05:37;;;;;;;;;;;6.80;88.60;;;;;;5030680;28;19917;-83
2023/01/10 00:08:03;;;;;;;;;;;6.80;88.30;;;;;;5026819;28;19960;-83
2023/01/10 00:10:29;;;;;;;;;;;6.80;88.20;;;;;;5027025;28;19944;-83
2023/01/10 00:15:38;;;;;;;;;;;6.90;88.10;;;;;;5027763;28;19963;-83
2023/01/10 00:18:04;;;;;;;;;;;6.90;88.20;;;;;;5011311;28;19913;-83
2023/01/10 00:20:29;;;;;;;;;;;6.80;88.00;;;;;;5021823;28;19917;-83
2023/01/10 00:22:55;;;;;;;;;;;6.80;88.00;;;;;;5025574;28;20444;-83
2023/01/10 00:25:20;;;;;;;;;;;6.80;88.00;;;;;;5032191;28;20368;-84
2023/01/10 00:27:56;;;;;;;;;;;6.80;87.90;;;;;;5009543;28;19949;-83
2023/01/10 00:30:22;;;;;;;;;;;6.80;88.10;;;;;;5015546;28;19913;-84
2023/01/10 00:32:47;;;;;;;;;;;6.80;88.00;;;;;;5027659;28;19913;-83
2023/01/10 00:35:13;;;;;;;;;;;6.80;87.80;;;;;;5013126;28;19975;-83
2023/01/10 00:37:39;;;;;;;;;;;6.80;87.90;;;;;;5031377;28;20008;-82
2023/01/10 00:40:08;;;;;;;;;;;6.80;88.00;;;;;;5031730;28;20031;-83
2023/01/10 00:45:19;;;;;;;;;;;6.80;87.70;;;;;;5030151;28;19932;-83
2023/01/10 00:47:45;;;;;;;;;;;6.80;87.50;;;;;;5034168;28;19921;-83
2023/01/10 00:50:10;;;;;;;;;;;6.80;87.60;;;;;;5012181;28;19920;-84
2023/01/10 00:52:36;;;;;;;;;;;6.80;87.50;;;;;;5025652;28;20012;-83
2023/01/10 00:55:01;;;;;;;;;;;6.80;87.50;;;;;;5008481;28;20285;-83
2023/01/10 00:57:27;;;;;;;;;;;6.80;87.50;;;;;;5031331;28;20044;-83
2023/01/10 00:59:52;;;;;;;;;;;6.80;87.60;;;;;;5033178;28;19959;-83
2023/01/10 01:02:18;;;;;;;;;;;6.80;87.60;;;;;;5023789;28;19993;-83
2023/01/10 01:04:43;;;;;;;;;;;6.80;87.50;;;;;;4999792;28;19913;-82
2023/01/10 01:07:08;;;;;;;;;;;6.80;87.70;;;;;;5024467;28;20131;-83
2023/01/10 01:10:25;;;;;;;;;;;6.80;87.40;;;;;;5023974;28;19924;-83
2023/01/10 01:12:19;;;;;;;;;;;6.90;87.00;;;;;;5034091;28;19917;-83
2023/01/10 01:14:45;;;;;;;;;;;6.90;87.00;;;;;;5026774;28;19940;-82
2023/01/10 01:17:10;;;;;;;;;;;6.80;87.10;;;;;;5025923;28;20261;-84
2023/01/10 01:19:36;;;;;;;;;;;6.70;87.40;;;;;;5014366;28;19917;-83
2023/01/10 01:22:01;;;;;;;;;;;6.80;87.20;;;;;;5015802;28;19913;-83
2023/01/10 01:24:27;;;;;;;;;;;6.70;87.30;;;;;;5032210;28;19984;-83
2023/01/10 01:26:52;;;;;;;;;;;6.60;87.50;;;;;;5040724;28;21661;-83
2023/01/10 01:29:18;;;;;;;;;;;6.50;87.70;;;;;;5014093;28;19990;-83
2023/01/10 01:31:43;;;;;;;;;;;6.60;87.40;;;;;;5011720;28;19913;-83
2023/01/10 01:34:09;;;;;;;;;;;6.50;87.40;;;;;;5012232;28;19921;-84
2023/01/10 01:36:34;;;;;;;;;;;6.50;87.70;;;;;;5030913;28;19917;-83
2023/01/10 01:38:59;;;;;;;;;;;6.50;87.70;;;;;;5014453;28;19980;-85
2023/01/10 01:44:13;;;;;;;;;;;6.50;87.70;;;;;;5034246;28;20346;-85
2023/01/10 01:46:39;;;;;;;;;;;6.40;87.60;;;;;;5024304;28;19935;-86
2023/01/10 01:49:08;;;;;;;;;;;6.50;87.70;;;;;;5014964;28;19917;-85
2023/01/10 01:51:33;;;;;;;;;;;6.50;87.80;;;;;;5009660;28;19944;-87
2023/01/10 01:54:02;;;;;;;;;;;6.50;87.60;;;;;;5008872;28;19928;-85
2023/01/10 01:56:30;;;;;;;;;;;6.50;87.50;;;;;;5013618;28;19917;-85
2023/01/10 01:59:01;;;;;;;;;;;6.60;87.50;;;;;;5017573;28;20313;-86
2023/01/10 02:01:27;;;;;;;;;;;6.60;87.20;;;;;;5004827;28;20447;-85
2023/01/10 02:03:57;;;;;;;;;;;6.60;87.40;;;;;;5012933;28;19944;-85
2023/01/10 02:06:23;;;;;;;;;;;6.60;87.00;;;;;;5011864;28;19976;-85
2023/01/10 02:08:53;;;;;;;;;;;6.50;87.00;;;;;;5013245;28;19917;-85
2023/01/10 02:11:19;;;;;;;;;;;6.60;87.40;;;;;;5029014;28;19917;-85
2023/01/10 02:13:45;;;;;;;;;;;6.60;87.10;;;;;;5006159;28;20461;-85
2023/01/10 02:16:10;;;;;;;;;;;6.60;87.20;;;;;;5007257;28;20004;-86
2023/01/10 02:18:38;;;;;;;;;;;6.70;87.00;;;;;;5007656;28;19971;-85
2023/01/10 02:21:09;;;;;;;;;;;6.70;86.70;;;;;;5022613;28;20372;-85
2023/01/10 02:23:55;;;;;;;;;;;6.60;86.70;;;;;;5022268;28;19971;-85
2023/01/10 02:26:20;;;;;;;;;;;6.60;86.70;;;;;;5056612;22;19925;-91
2023/01/10 02:28:48;;;;;;;;;;;6.60;87.00;;;;;;5005468;28;19948;-87
2023/01/10 02:31:32;;;;;;;;;;;6.60;86.90;;;;;;5008914;28;19913;-88
2023/01/10 02:34:03;;;;;;;;;;;6.70;86.70;;;;;;5034329;28;19941;-89
2023/01/10 02:36:35;;;;;;;;;;;6.60;86.70;;;;;;4994808;28;19921;-87
2023/01/10 02:39:04;;;;;;;;;;;6.60;86.60;;;;;;4994452;28;20294;-87
2023/01/10 02:41:44;;;;;;;;;;;6.60;86.60;;;;;;4991741;28;20364;-86
2023/01/10 02:44:09;;;;;;;;;;;6.50;86.60;;;;;;4991060;28;19918;-87
2023/01/10 02:46:36;;;;;;;;;;;6.50;86.30;;;;;;4992642;28;19930;-87
2023/01/10 02:49:01;;;;;;;;;;;6.40;86.80;;;;;;4990776;28;19917;-88
2023/01/10 02:51:28;;;;;;;;;;;6.50;86.50;;;;;;5015854;28;19972;-88
2023/01/10 02:54:15;;;;;;;;;;;6.40;86.70;;;;;;4988045;28;19913;-86
2023/01/10 02:56:59;;;;;;;;;;;6.30;86.90;;;;;;4983909;28;19937;-87
2023/01/10 02:59:24;;;;;;;;;;;6.30;86.60;;;;;;4984621;28;19921;-86
2023/01/10 03:01:56;;;;;;;;;;;6.30;86.40;;;;;;4994527;28;19918;-87
2023/01/10 03:04:33;;;;;;;;;;;6.30;86.80;;;;;;4987253;28;19949;-87
2023/01/10 03:07:08;;;;;;;;;;;6.20;87.20;;;;;;4995677;28;19924;-87
2023/01/10 03:09:52;;;;;;;;;;;6.10;87.50;;;;;;4985256;28;19917;-86
2023/01/10 03:12:27;;;;;;;;;;;6.20;87.60;;;;;;5015250;28;20431;-88
2023/01/10 03:14:54;;;;;;;;;;;6.30;87.10;;;;;;4984951;28;19959;-86
2023/01/10 03:17:21;;;;;;;;;;;6.30;86.90;;;;;;4998173;28;19918;-86
2023/01/10 03:19:49;;;;;;;;;;;6.40;86.70;;;;;;5004068;28;19913;-86
2023/01/10 03:22:16;;;;;;;;;;;6.40;86.60;;;;;;5007801;28;19914;-86
2023/01/10 03:24:43;;;;;;;;;;;6.40;86.70;;;;;;4991959;28;19950;-86
2023/01/10 03:27:14;;;;;;;;;;;6.40;86.70;;;;;;4997567;28;19921;-87
2023/01/10 03:29:45;;;;;;;;;;;6.40;86.80;;;;;;5008077;28;20386;-86
2023/01/10 03:32:12;;;;;;;;;;;6.40;86.70;;;;;;4991542;28;19918;-87
2023/01/10 03:34:38;;;;;;;;;;;6.40;86.30;;;;;;5008590;28;20347;-86
2023/01/10 03:37:08;;;;;;;;;;;6.50;86.50;;;;;;4974166;28;19918;-86
2023/01/10 03:39:43;;;;;;;;;;;6.50;86.30;;;;;;4988078;28;19906;-86
2023/01/10 03:42:20;;;;;;;;;;;6.50;85.80;;;;;;5000940;28;20437;-86
2023/01/10 03:45:05;;;;;;;;;;;6.50;85.70;;;;;;4989147;28;19917;-86
2023/01/10 03:47:31;;;;;;;;;;;6.50;85.40;;;;;;5007848;28;19917;-88
2023/01/10 03:49:58;;;;;;;;;;;6.50;85.60;;;;;;4997295;28;19921;-86
2023/01/10 03:52:24;;;;;;;;;;;6.50;85.50;;;;;;5023468;28;19948;-87
2023/01/10 03:54:49;;;;;;;;;;;6.40;85.70;;;;;;5006509;28;19917;-90
2023/01/10 03:57:19;;;;;;;;;;;6.40;85.60;;;;;;4989509;28;20319;-88
2023/01/10 03:59:45;;;;;;;;;;;6.40;85.70;;;;;;5003660;28;20351;-86
2023/01/10 04:02:11;;;;;;;;;;;6.40;85.60;;;;;;4999686;28;19913;-86
2023/01/10 04:04:36;;;;;;;;;;;6.40;85.30;;;;;;4999555;28;20370;-86
2023/01/10 04:07:01;;;;;;;;;;;6.30;85.50;;;;;;4989055;28;20318;-88
2023/01/10 04:09:27;;;;;;;;;;;6.40;85.80;;;;;;5033922;23;19987;-83
2023/01/10 04:11:52;;;;;;;;;;;6.40;85.50;;;;;;5008601;28;19913;-83
2023/01/10 04:14:18;;;;;;;;;;;6.30;85.20;;;;;;5006789;28;19921;-81
2023/01/10 04:16:43;;;;;;;;;;;6.30;85.60;;;;;;5025080;28;19929;-82
2023/01/10 04:19:09;;;;;;;;;;;6.20;85.80;;;;;;5022105;28;19913;-81
2023/01/10 04:21:35;;;;;;;;;;;6.20;85.70;;;;;;5028658;28;19913;-82
2023/01/10 04:24:00;;;;;;;;;;;6.30;85.60;;;;;;5012121;28;20004;-81
2023/01/10 04:26:26;;;;;;;;;;;6.20;85.90;;;;;;5006036;28;19975;-83
2023/01/10 04:28:51;;;;;;;;;;;6.20;85.90;;;;;;5017764;28;19914;-83
2023/01/10 04:31:16;;;;;;;;;;;6.10;85.60;;;;;;5023852;28;19913;-82
2023/01/10 04:33:42;;;;;;;;;;;6.10;85.80;;;;;;5015681;28;19917;-82
2023/01/10 04:36:07;;;;;;;;;;;6.10;85.80;;;;;;5028963;28;19921;-83
2023/01/10 04:38:33;;;;;;;;;;;6.00;85.90;;;;;;5034662;28;19967;-81
2023/01/10 04:40:58;;;;;;;;;;;6.00;86.00;;;;;;5019580;28;19940;-81
2023/01/10 04:43:24;;;;;;;;;;;5.90;86.10;;;;;;5010959;28;19927;-83
2023/01/10 04:45:50;;;;;;;;;;;5.90;86.00;;;;;;5020920;28;20388;-83
2023/01/10 04:48:15;;;;;;;;;;;5.90;86.20;;;;;;5002909;28;19925;-81
2023/01/10 04:50:40;;;;;;;;;;;5.90;86.10;;;;;;5019906;28;19928;-81
2023/01/10 04:53:06;;;;;;;;;;;5.90;86.50;;;;;;5027919;28;19913;-79
2023/01/10 04:55:32;;;;;;;;;;;5.80;86.20;;;;;;5042201;28;19913;-80
2023/01/10 04:57:58;;;;;;;;;;;5.80;85.90;;;;;;5025229;28;19958;-79
2023/01/10 05:00:23;;;;;;;;;;;5.80;86.00;;;;;;5026171;28;20266;-80
2023/01/10 05:02:53;;;;;;;;;;;5.80;85.80;;;;;;5022441;28;20281;-80
2023/01/10 05:05:19;;;;;;;;;;;5.80;86.10;;;;;;5023210;28;19967;-80
2023/01/10 05:07:45;;;;;;;;;;;5.90;86.20;;;;;;5011279;28;19960;-80
2023/01/10 05:10:10;;;;;;;;;;;5.90;86.20;;;;;;5023701;28;19914;-80
2023/01/10 05:12:36;;;;;;;;;;;5.90;86.00;;;;;;5018480;28;20520;-78
2023/01/10 05:15:01;;;;;;;;;;;5.90;85.80;;;;;;5026298;28;19932;-79
2023/01/10 05:17:27;;;;;;;;;;;6.00;85.80;;;;;;5027709;28;19913;-79
2023/01/10 05:19:52;;;;;;;;;;;6.00;85.40;;;;;;5006322;28;19913;-79
2023/01/10 05:22:17;;;;;;;;;;;6.00;85.50;;;;;;5026373;28;20350;-79
2023/01/10 05:24:43;;;;;;;;;;;5.90;85.60;;;;;;5018397;28;20045;-79
2023/01/10 05:27:08;;;;;;;;;;;5.90;85.70;;;;;;5016311;28;20391;-77
2023/01/10 05:29:34;;;;;;;;;;;5.90;85.60;;;;;;5023171;28;20300;-79
2023/01/10 05:31:59;;;;;;;;;;;5.90;85.70;;;;;;5029525;28;19909;-78
2023/01/10 05:34:25;;;;;;;;;;;5.90;85.60;;;;;;5004327;28;20087;-78
2023/01/10 05:36:50;;;;;;;;;;;5.90;85.70;;;;;;5028317;28;19913;-79
2023/01/10 05:39:16;;;;;;;;;;;5.90;85.90;;;;;;5023165;28;20435;-79
2023/01/10 05:41:41;;;;;;;;;;;5.90;85.80;;;;;;5017769;28;20009;-79
2023/01/10 05:44:07;;;;;;;;;;;6.00;85.50;;;;;;5017037;28;19945;-79
2023/01/10 05:46:33;;;;;;;;;;;5.90;85.60;;;;;;5007401;28;19917;-78
2023/01/10 05:48:58;;;;;;;;;;;5.90;85.60;;;;;;5009927;28;19928;-79
2023/01/10 05:51:24;;;;;;;;;;;5.90;85.50;;;;;;5020781;28;19993;-80
2023/01/10 05:53:49;;;;;;;;;;;5.90;85.40;;;;;;5010040;28;19948;-79
2023/01/10 05:56:15;;;;;;;;;;;5.80;85.70;;;;;;5021401;28;19923;-81
2023/01/10 05:58:40;;;;;;;;;;;5.80;85.70;;;;;;5019078;28;19917;-80
2023/01/10 06:01:06;;;;;;;;;;;5.90;85.70;;;;;;5022203;28;20274;-80
2023/01/10 06:03:31;;;;;;;;;;;5.90;86.00;;;;;;5004107;28;19917;-80
2023/01/10 06:05:56;;;;;;;;;;;5.90;85.60;;;;;;5003545;28;20490;-80
2023/01/10 06:08:22;;;;;;;;;;;5.90;85.50;;;;;;5019671;28;19917;-80
2023/01/10 06:10:48;;;;;;;;;;;5.80;85.90;;;;;;5025108;28;19920;-80
2023/01/10 06:13:14;;;;;;;;;;;5.80;85.60;;;;;;5012832;28;19913;-82
2023/01/10 06:15:39;;;;;;;;;;;5.80;85.60;;;;;;5044817;28;19917;-82
2023/01/10 06:18:05;;;;;;;;;;;5.80;85.40;;;;;;5031074;28;19945;-79
2023/01/10 06:20:31;;;;;;;;;;;5.80;85.50;;;;;;5012319;28;19917;-79
2023/01/10 06:22:57;;;;;;;;;;;5.80;85.60;;;;;;5025956;28;19924;-80
2023/01/10 06:25:23;;;;;;;;;;;5.80;85.60;;;;;;5012195;28;20369;-81
2023/01/10 06:27:48;;;;;;;;;;;5.80;85.30;;;;;;5026617;28;19914;-82
2023/01/10 06:30:14;;;;;;;;;;;5.70;85.70;;;;;;5027147;28;19928;-81
2023/01/10 06:32:41;;;;;;;;;;;5.80;85.40;;;;;;5011271;28;19917;-80
2023/01/10 06:35:06;;;;;;;;;;;5.70;85.70;;;;;;5043162;28;19913;-79
2023/01/10 06:37:32;;;;;;;;;;;5.70;86.00;;;;;;5022544;28;19917;-82
2023/01/10 06:39:57;;;;;;;;;;;5.80;85.70;;;;;;5028461;28;19924;-80
2023/01/10 06:42:23;;;;;;;;;;;5.90;85.80;;;;;;5046782;28;20353;-77
2023/01/10 06:44:49;;;;;;;;;;;6.00;85.50;;;;;;5043581;28;19917;-79
2023/01/10 06:47:14;;;;;;;;;;;6.00;85.20;;;;;;5037850;28;19952;-81
2023/01/10 06:49:39;;;;;;;;;;;6.00;85.00;;;;;;5055169;28;19921;-80
2023/01/10 06:52:05;;;;;;;;;;;6.00;85.10;;;;;;5039085;28;19913;-78
2023/01/10 06:54:30;;;;;;;;;;;6.00;85.10;;;;;;5020369;28;19921;-80
2023/01/10 06:56:56;;;;;;;;;;;6.10;84.80;;;;;;5034775;28;20380;-80
2023/01/10 06:59:21;;;;;;;;;;;6.10;85.10;;;;;;5020833;28;19913;-79
2023/01/10 07:01:46;;;;;;;;;;;6.10;85.10;;;;;;5031932;28;19913;-81
2023/01/10 07:04:12;;;;;;;;;;;6.10;84.90;;;;;;5031552;28;19967;-81
2023/01/10 07:06:38;;;;;;;;;;;6.10;84.60;;;;;;5030253;28;19975;-79
2023/01/10 07:09:04;;;;;;;;;;;6.10;84.70;;;;;;5017873;28;19917;-75
2023/01/10 07:11:30;;;;;;;;;;;6.20;84.70;;;;;;5026800;28;19921;-76
2023/01/10 07:13:56;;;;;;;;;;;6.10;84.60;;;;;;5043370;28;20300;-77
2023/01/10 07:16:21;;;;;;;;;;;6.00;84.40;;;;;;5034778;28;19967;-78
2023/01/10 07:18:47;;;;;;;;;;;6.00;84.70;;;;;;5029336;28;19959;-77
2023/01/10 07:21:12;;;;;;;;;;;6.10;84.80;;;;;;5010080;28;19920;-76
2023/01/10 07:23:38;;;;;;;;;;;6.10;84.70;;;;;;5021006;28;19924;-76
2023/01/10 07:26:04;;;;;;;;;;;6.10;84.40;;;;;;5027747;28;20365;-77
2023/01/10 07:28:30;;;;;;;;;;;6.10;84.60;;;;;;5025883;28;19914;-77
2023/01/10 07:30:59;;;;;;;;;;;6.10;84.50;;;;;;5036491;28;19971;-76
2023/01/10 07:33:25;;;;;;;;;;;6.10;84.60;;;;;;5015342;28;19929;-76
2023/01/10 07:35:50;;;;;;;;;;;6.20;84.20;;;;;;5011943;28;19914;-75
2023/01/10 07:38:16;;;;;;;;;;;6.10;84.30;;;;;;5019117;28;19917;-77
2023/01/10 07:40:41;;;;;;;;;;;6.10;84.30;;;;;;5019624;28;19928;-76
2023/01/10 07:43:07;;;;;;;;;;;6.10;84.30;;;;;;5045815;28;19929;-76
2023/01/10 07:45:33;;;;;;;;;;;6.20;84.20;;;;;;5015557;28;19917;-77
2023/01/10 07:47:59;;;;;;;;;;;6.10;84.10;;;;;;5030956;28;20487;-77
2023/01/10 07:50:25;;;;;;;;;;;6.10;84.50;;;;;;5013389;28;20008;-77
2023/01/10 07:52:50;;;;;;;;;;;6.20;84.50;;;;;;5031254;28;19913;-77
2023/01/10 07:55:16;;;;;;;;;;;6.20;84.30;;;;;;5010020;28;19924;-77
2023/01/10 07:57:42;;;;;;;;;;;6.20;84.20;;;;;;5025240;28;19924;-77
2023/01/10 08:00:08;;;;;;;;;;;6.30;84.20;;;;;;5043237;28;19920;-77
2023/01/10 08:02:33;;;;;;;;;;;6.40;83.80;;;;;;5026960;28;19917;-76
2023/01/10 08:04:59;;;;;;;;;;;6.40;84.00;;;;;;5021125;28;19914;-77
2023/01/10 08:07:24;;;;;;;;;;;6.40;83.80;;;;;;5029398;28;19979;-77
2023/01/10 08:09:50;;;;;;;;;;;6.40;83.90;;;;;;5023137;28;19925;-77
2023/01/10 08:12:15;;;;;;;;;;;6.50;83.60;;;;;;5014853;28;19913;-77
2023/01/10 08:14:41;;;;;;;;;;;6.50;83.70;;;;;;5008201;28;20318;-76
2023/01/10 08:17:06;;;;;;;;;;;6.40;83.70;;;;;;5039268;28;20388;-77
2023/01/10 08:19:31;;;;;;;;;;;6.50;83.80;;;;;;5028941;28;20352;-78
2023/01/10 08:21:57;;;;;;;;;;;6.50;83.70;;;;;;5031503;28;19916;-77
2023/01/10 08:24:22;;;;;;;;;;;6.40;83.60;;;;;;5025898;28;19913;-77
2023/01/10 08:26:48;;;;;;;;;;;6.50;83.90;;;;;;5024797;28;19921;-77
2023/01/10 08:29:14;;;;;;;;;;;6.40;83.50;;;;;;5007678;28;19919;-77
2023/01/10 08:31:40;;;;;;;;;;;6.50;83.50;;;;;;5014440;28;20096;-77
2023/01/10 08:34:05;;;;;;;;;;;6.50;83.40;;;;;;5039376;28;20019;-77
2023/01/10 08:36:31;;;;;;;;;;;6.50;83.40;;;;;;5029451;28;19929;-77
2023/01/10 08:38:56;;;;;;;;;;;6.50;83.80;;;;;;5025977;28;20385;-76
2023/01/10 08:41:22;;;;;;;;;;;6.50;83.00;;;;;;5019896;28;19921;-77
2023/01/10 08:43:48;;;;;;;;;;;6.50;83.20;;;;;;5034014;28;19917;-77
2023/01/10 08:46:13;;;;;;;;;;;6.50;83.50;;;;;;5038462;28;19913;-76
2023/01/10 08:48:39;;;;;;;;;;;6.50;83.20;;;;;;5012284;28;19913;-76
2023/01/10 08:51:06;;;;;;;;;;;6.60;83.00;;;;;;5026617;28;19913;-77
2023/01/10 08:53:31;;;;;;;;;;;6.60;83.30;;;;;;5029596;28;19917;-76
2023/01/10 08:55:57;;;;;;;;;;;6.60;83.40;;;;;;5026712;28;19913;-76
2023/01/10 08:58:22;;;;;;;;;;;6.50;83.10;;;;;;5029655;28;19992;-77
2023/01/10 09:00:48;;;;;;;;;;;6.50;83.30;;;;;;5010516;28;19936;-77
2023/01/10 09:03:13;;;;;;;;;;;6.50;83.00;;;;;;5031710;28;19913;-77
2023/01/10 09:05:39;;;;;;;;;;;6.60;83.10;;;;;;5030431;28;19932;-78
2023/01/10 09:08:05;;;;;;;;;;;6.60;82.80;;;;;;5033210;28;20000;-77
2023/01/10 09:10:30;;;;;;;;;;;6.60;83.10;;;;;;5031743;28;19920;-77
2023/01/10 09:12:58;;;;;;;;;;;6.50;82.90;;;;;;5020442;28;19973;-77
2023/01/10 09:15:27;;;;;;;;;;;6.50;83.30;;;;;;5046788;28;20277;-77
2023/01/10 09:17:56;;;;;;;;;;;6.50;83.10;;;;;;5043674;28;20261;-77
2023/01/10 09:20:23;;;;;;;;;;;6.50;83.10;;;;;;5014985;28;19948;-76
2023/01/10 09:22:49;;;;;;;;;;;6.40;83.10;;;;;;5018974;28;20334;-77
2023/01/10 09:25:14;;;;;;;;;;;6.30;83.30;;;;;;5030269;28;19961;-77
2023/01/10 09:27:40;;;;;;;;;;;6.30;83.40;;;;;;5031770;28;19980;-76
2023/01/10 09:30:05;;;;;;;;;;;6.30;83.60;;;;;;5031333;28;19913;-77
2023/01/10 09:32:31;;;;;;;;;;;6.40;83.50;;;;;;5038559;28;19917;-77
2023/01/10 09:34:56;;;;;;;;;;;6.40;83.30;;;;;;5037747;28;19913;-77
2023/01/10 09:37:22;;;;;;;;;;;6.40;83.40;;;;;;5043520;28;19944;-78
2023/01/10 09:39:47;;;;;;;;;;;6.50;83.40;;;;;;5032338;28;19920;-78
2023/01/10 09:42:24;;;;;;;;;;;6.40;83.50;;;;;;5032846;28;19913;-79
2023/01/10 09:44:52;;;;;;;;;;;6.40;83.40;;;;;;5020242;28;20097;-78
2023/01/10 09:47:37;;;;;;;;;;;6.50;83.30;;;;;;5020201;28;20007;-79
2023/01/10 09:50:14;;;;;;;;;;;6.60;82.90;;;;;;5036172;28;19920;-78
2023/01/10 09:52:42;;;;;;;;;;;6.60;82.80;;;;;;5042982;28;19913;-78
2023/01/10 09:55:17;;;;;;;;;;;6.60;82.60;;;;;;5026057;28;19919;-78
2023/01/10 09:57:42;;;;;;;;;;;6.60;82.80;;;;;;5040960;28;19986;-78
2023/01/10 10:00:14;;;;;;;;;;;6.70;82.20;;;;;;5047617;28;19913;-78
2023/01/10 10:02:41;;;;;;;;;;;6.80;82.10;;;;;;5021470;28;19976;-78
2023/01/10 10:05:10;;;;;;;;;;;6.80;82.00;;;;;;5040615;28;20050;-79
2023/01/10 10:07:35;;;;;;;;;;;6.80;81.90;;;;;;5018560;28;20018;-78
2023/01/10 10:10:01;;;;;;;;;;;6.80;81.90;;;;;;5049355;22;19995;-87
2023/01/10 10:12:42;;;;;;;;;;;6.80;81.70;;;;;;5017284;28;19917;-87
2023/01/10 10:15:19;;;;;;;;;;;6.80;81.60;;;;;;5013816;28;19909;-88
2023/01/10 10:17:50;;;;;;;;;;;6.90;81.70;;;;;;5028742;28;20003;-87
2023/01/10 10:20:42;;;;;;;;;;;7.00;81.50;;;;;;5013797;28;20402;-88
2023/01/10 10:23:07;;;;;;;;;;;7.00;81.10;;;;;;5014427;28;19936;-88
2023/01/10 10:25:39;;;;;;;;;;;7.00;81.60;;;;;;5022310;28;20378;-87
2023/01/10 10:28:31;;;;;;;;;;;6.90;81.20;;;;;;5028310;28;19975;-87
2023/01/10 10:31:05;;;;;;;;;;;7.10;81.40;;;;;;5023669;28;19909;-88
2023/01/10 10:33:49;;;;;;;;;;;7.00;81.30;;;;;;5033561;28;19920;-87
2023/01/10 10:36:33;;;;;;;;;;;7.10;81.10;;;;;;5023270;28;20116;-88
2023/01/10 10:39:00;;;;;;;;;;;7.00;80.90;;;;;;5010941;28;19975;-87
2023/01/10 10:41:35;;;;;;;;;;;7.10;80.50;;;;;;5019004;28;19982;-86
2023/01/10 10:44:05;;;;;;;;;;;7.10;80.90;;;;;;5010000;28;19913;-87
2023/01/10 10:46:30;;;;;;;;;;;7.00;80.50;;;;;;5011694;28;20007;-87
2023/01/10 10:48:58;;;;;;;;;;;7.00;80.90;;;;;;5015553;28;19909;-87
2023/01/10 10:51:36;;;;;;;;;;;7.20;80.60;;;;;;5012322;28;19909;-88
2023/01/10 10:54:02;;;;;;;;;;;7.10;80.60;;;;;;5005117;28;19913;-88
2023/01/10 10:56:28;;;;;;;;;;;7.10;80.50;;;;;;5015069;28;19913;-87
2023/01/10 10:58:55;;;;;;;;;;;7.20;80.40;;;;;;5014317;28;20309;-88
2023/01/10 11:01:21;;;;;;;;;;;7.20;80.20;;;;;;5028975;28;19915;-87
2023/01/10 11:03:55;;;;;;;;;;;7.30;80.20;;;;;;5028915;28;19913;-88
2023/01/10 11:06:23;;;;;;;;;;;7.30;80.10;;;;;;5012166;28;19920;-87
2023/01/10 11:08:49;;;;;;;;;;;7.20;79.90;;;;;;5026673;28;19924;-87
2023/01/10 11:11:25;;;;;;;;;;;7.30;80.00;;;;;;5009301;28;19924;-87
2023/01/10 11:13:53;;;;;;;;;;;7.30;79.80;;;;;;5017528;28;19919;-87
2023/01/10 11:16:23;;;;;;;;;;;7.30;79.60;;;;;;5015898;28;20060;-87
2023/01/10 11:19:07;;;;;;;;;;;7.30;80.00;;;;;;5027063;28;19920;-87
2023/01/10 11:21:33;;;;;;;;;;;7.50;79.70;;;;;;5014514;28;19913;-86
2023/01/10 11:23:58;;;;;;;;;;;7.50;79.70;;;;;;5005559;28;20366;-86
2023/01/10 11:26:25;;;;;;;;;;;7.50;79.20;;;;;;5023419;28;20299;-88
2023/01/10 11:28:52;;;;;;;;;;;7.50;78.90;;;;;;5039185;28;19913;-88
2023/01/10 11:31:27;;;;;;;;;;;7.50;79.20;;;;;;5031502;28;20019;-86
2023/01/10 11:33:53;;;;;;;;;;;7.50;79.30;;;;;;5012718;28;20455;-87
2023/01/10 11:36:18;;;;;;;;;;;7.60;78.90;;;;;;5028011;28;19996;-87
2023/01/10 11:38:57;;;;;;;;;;;7.60;78.80;;;;;;5012069;28;19961;-87
2023/01/10 11:41:24;;;;;;;;;;;7.60;79.20;;;;;;5006630;28;19967;-88
2023/01/10 11:43:49;;;;;;;;;;;7.70;78.80;;;;;;5022900;28;19980;-87
2023/01/10 11:46:16;;;;;;;;;;;7.70;78.90;;;;;;5009368;28;20007;-86
2023/01/10 11:48:43;;;;;;;;;;;7.70;78.90;;;;;;5007995;28;20371;-87
2023/01/10 11:51:23;;;;;;;;;;;7.70;78.30;;;;;;5027641;28;19973;-87
2023/01/10 11:53:50;;;;;;;;;;;7.80;78.70;;;;;;5007360;28;19913;-87
2023/01/10 11:56:22;;;;;;;;;;;7.80;78.40;;;;;;5005579;28;19913;-87
2023/01/10 11:58:47;;;;;;;;;;;7.70;78.30;;;;;;5006594;28;20002;-86
2023/01/10 12:01:27;;;;;;;;;;;7.80;78.40;;;;;;5017616;28;19925;-84
2023/01/10 12:03:52;;;;;;;;;;;7.80;78.60;;;;;;5021736;28;19913;-84
2023/01/10 12:06:19;;;;;;;;;;;7.80;78.70;;;;;;5016831;28;19920;-83
2023/01/10 12:08:44;;;;;;;;;;;7.80;78.50;;;;;;5026330;28;19930;-84
2023/01/10 12:11:16;;;;;;;;;;;7.80;78.30;;;;;;5039371;28;21242;-84
2023/01/10 12:13:47;;;;;;;;;;;7.80;78.60;;;;;;5038930;28;20379;-84
2023/01/10 12:16:32;;;;;;;;;;;7.90;78.50;;;;;;5010400;28;19925;-84
2023/01/10 12:18:59;;;;;;;;;;;8.00;78.40;;;;;;5006099;28;20697;-84
2023/01/10 12:21:25;;;;;;;;;;;8.00;77.60;;;;;;5015889;28;19956;-85
2023/01/10 12:23:51;;;;;;;;;;;8.00;77.70;;;;;;5016399;28;19913;-84
2023/01/10 12:26:17;;;;;;;;;;;8.00;78.00;;;;;;5021000;28;20286;-84
2023/01/10 12:28:50;;;;;;;;;;;8.00;77.50;;;;;;5023882;28;19920;-84
2023/01/10 12:31:17;;;;;;;;;;;8.00;77.50;;;;;;5015288;28;20514;-84
2023/01/10 12:33:50;;;;;;;;;;;8.00;77.80;;;;;;5026040;28;19909;-87
2023/01/10 12:36:21;;;;;;;;;;;8.10;77.60;;;;;;5034439;28;20020;-87
2023/01/10 12:39:03;;;;;;;;;;;8.00;76.90;;;;;;5006151;28;19910;-87
2023/01/10 12:44:27;;;;;;;;;;;8.10;77.00;;;;;;5031775;28;20051;-86
2023/01/10 12:47:12;;;;;;;;;;;8.10;77.10;;;;;;5010949;28;20043;-86
2023/01/10 12:49:43;;;;;;;;;;;8.20;76.60;;;;;;5014380;28;19917;-87
2023/01/10 12:52:15;;;;;;;;;;;8.20;76.10;;;;;;5010226;28;19917;-85
2023/01/10 12:54:44;;;;;;;;;;;8.10;76.20;;;;;;5020942;28;19917;-85
2023/01/10 12:57:22;;;;;;;;;;;8.20;76.20;;;;;;5011006;28;19991;-86
2023/01/10 12:59:48;;;;;;;;;;;8.20;76.00;;;;;;5029886;28;19924;-86
2023/01/10 13:02:15;;;;;;;;;;;8.20;75.90;;;;;;5022727;28;20298;-86
2023/01/10 13:04:42;;;;;;;;;;;8.30;75.30;;;;;;5003656;28;20341;-85
2023/01/10 13:07:09;;;;;;;;;;;8.30;75.40;;;;;;5008924;28;19924;-83
2023/01/10 13:09:35;;;;;;;;;;;8.30;75.20;;;;;;5006556;28;19932;-84
2023/01/10 13:12:01;;;;;;;;;;;8.40;75.20;;;;;;5001997;28;19909;-84
2023/01/10 13:14:32;;;;;;;;;;;8.50;74.80;;;;;;5009406;28;19913;-83
2023/01/10 13:17:07;;;;;;;;;;;8.50;74.20;;;;;;5042458;28;19992;-86
2023/01/10 13:19:32;;;;;;;;;;;8.50;74.00;;;;;;5008653;28;19913;-84
2023/01/10 13:22:16;;;;;;;;;;;8.50;73.80;;;;;;5020095;28;19914;-83
2023/01/10 13:24:53;;;;;;;;;;;8.40;74.00;;;;;;5016095;28;19913;-83
2023/01/10 13:27:19;;;;;;;;;;;8.40;74.20;;;;;;5008826;28;19924;-84
2023/01/10 13:29:46;;;;;;;;;;;8.60;73.70;;;;;;5014164;28;19913;-84
2023/01/10 13:32:18;;;;;;;;;;;8.40;73.80;;;;;;5028921;28;20074;-84
2023/01/10 13:34:44;;;;;;;;;;;8.40;73.80;;;;;;5033168;28;19913;-84
2023/01/10 13:37:11;;;;;;;;;;;8.40;73.50;;;;;;5013205;28;19921;-85
2023/01/10 13:39:38;;;;;;;;;;;8.40;73.50;;;;;;5007909;28;19913;-85
2023/01/10 13:45:00;;;;;;;;;;;8.40;73.10;;;;;;5024332;28;19928;-84
2023/01/10 13:47:38;;;;;;;;;;;8.40;73.10;;;;;;5011944;28;19925;-84
2023/01/10 13:50:22;;;;;;;;;;;8.40;73.10;;;;;;5017097;28;19921;-85
2023/01/10 13:52:48;;;;;;;;;;;8.50;72.40;;;;;;5011469;28;19917;-86
2023/01/10 13:55:19;;;;;;;;;;;8.40;72.10;;;;;;5011724;28;19913;-85
2023/01/10 13:57:50;;;;;;;;;;;8.40;72.20;;;;;;5012859;28;20023;-86
2023/01/10 14:03:29;;;;;;;;;;;8.30;72.20;;;;;;5030509;28;19983;-85
2023/01/10 14:05:54;;;;;;;;;;;8.30;72.40;;;;;;5014026;28;19924;-85
2023/01/10 14:08:20;;;;;;;;;;;8.40;73.00;;;;;;5016803;28;20287;-85
2023/01/10 14:10:46;;;;;;;;;;;8.50;72.20;;;;;;5008933;28;19917;-85
2023/01/10 14:13:19;;;;;;;;;;;8.40;72.30;;;;;;5035750;28;19913;-85
2023/01/10 14:15:45;;;;;;;;;;;8.40;71.80;;;;;;5015188;28;19967;-88
2023/01/10 14:18:19;;;;;;;;;;;8.40;71.80;;;;;;5024738;28;19913;-87
2023/01/10 14:20:54;;;;;;;;;;;8.40;71.60;;;;;;5035993;28;19962;-87
2023/01/10 14:23:21;;;;;;;;;;;8.50;71.80;;;;;;5018698;28;19917;-84
2023/01/10 14:25:54;;;;;;;;;;;8.30;71.40;;;;;;5031318;28;19964;-85
2023/01/10 14:28:22;;;;;;;;;;;8.20;72.10;;;;;;5021529;28;19916;-85
2023/01/10 14:31:14;;;;;;;;;;;8.30;71.90;;;;;;5032958;28;19959;-86
2023/01/10 14:33:41;;;;;;;;;;;8.20;71.50;;;;;;5007511;28;20001;-88
2023/01/10 14:36:08;;;;;;;;;;;8.20;71.30;;;;;;5013701;28;20267;-87
2023/01/10 14:38:34;;;;;;;;;;;8.20;71.30;;;;;;5010235;28;19922;-85
2023/01/10 14:41:12;;;;;;;;;;;8.10;72.20;;;;;;5011432;28;20055;-86
2023/01/10 14:43:40;;;;;;;;;;;8.10;71.50;;;;;;5024030;28;19913;-85
2023/01/10 14:46:10;;;;;;;;;;;8.10;71.50;;;;;;5006160;28;19929;-85
2023/01/10 14:48:40;;;;;;;;;;;8.10;72.20;;;;;;5013845;28;19917;-86
2023/01/10 14:51:20;;;;;;;;;;;8.00;71.70;;;;;;5022526;28;19929;-86
2023/01/10 14:53:47;;;;;;;;;;;8.00;71.30;;;;;;5013825;28;19918;-85